Time;durP1;ratioP1;P1;durP2;ratioP2;P2;SDS_P1;SDS_P2;PMS_P1;PMS_P2;Temp;Humidity;BMP_temperature;BMP_pressure;BME280_temperature;BME280_humidity;BME280_pressure;Samples;Min_cycle;Max_cycle;Signal;HPM_P1;HPM_P2
2023/08/29 00:00:03;;;;;;;16.15;4.93;;;18.80;99.90;;;;;;5093138;28;20086;-61
2023/08/29 00:02:31;;;;;;;13.73;4.80;;;18.80;99.90;;;;;;5093114;28;20020;-60
2023/08/29 00:04:58;;;;;;;14.95;5.00;;;18.80;99.90;;;;;;5092833;28;20032;-60
2023/08/29 00:07:24;;;;;;;17.23;5.05;;;18.80;99.90;;;;;;5092884;28;20016;-60
2023/08/29 00:09:52;;;;;;;13.77;4.57;;;18.80;99.90;;;;;;5092958;28;20035;-60
2023/08/29 00:12:18;;;;;;;13.80;4.93;;;18.80;99.90;;;;;;5092870;28;20103;-60
2023/08/29 00:14:44;;;;;;;12.75;4.63;;;19.20;99.90;;;;;;5092835;28;20147;-60
2023/08/29 00:17:09;;;;;;;14.82;5.20;;;19.30;99.90;;;;;;5075175;28;20024;-60
2023/08/29 00:19:35;;;;;;;13.90;4.95;;;19.30;99.90;;;;;;5092465;28;20032;-60
2023/08/29 00:22:01;;;;;;;14.68;5.30;;;19.50;99.90;;;;;;5092824;28;20028;-60
2023/08/29 00:24:28;;;;;;;15.95;5.20;;;19.40;99.90;;;;;;5092625;28;20598;-60
2023/08/29 00:26:53;;;;;;;15.35;4.97;;;19.60;99.90;;;;;;5064795;28;20045;-61
2023/08/29 00:29:19;;;;;;;15.15;5.13;;;19.60;99.90;;;;;;5072791;28;20051;-60
2023/08/29 00:31:44;;;;;;;12.45;5.05;;;19.60;99.90;;;;;;5072442;28;20457;-60
2023/08/29 00:34:10;;;;;;;12.30;4.47;;;19.60;99.90;;;;;;5071948;28;20083;-60
2023/08/29 00:36:36;;;;;;;13.23;5.30;;;19.50;99.90;;;;;;5072094;28;20028;-60
2023/08/29 00:39:03;;;;;;;14.85;5.15;;;19.50;99.90;;;;;;5071898;28;20051;-60
2023/08/29 00:41:29;;;;;;;14.60;4.72;;;19.50;99.90;;;;;;5072147;28;20028;-60
2023/08/29 00:43:54;;;;;;;11.40;4.57;;;19.50;99.90;;;;;;5071569;28;20461;-60
2023/08/29 00:46:20;;;;;;;11.15;4.65;;;19.50;99.90;;;;;;5072237;28;20035;-60
2023/08/29 00:48:48;;;;;;;12.10;4.80;;;19.40;99.90;;;;;;5071468;28;20107;-60
2023/08/29 00:51:14;;;;;;;11.50;4.60;;;19.30;99.90;;;;;;5072081;28;20029;-60
2023/08/29 00:53:39;;;;;;;11.63;4.43;;;19.20;99.90;;;;;;5071807;28;20099;-60
2023/08/29 00:56:06;;;;;;;11.07;4.35;;;19.10;99.90;;;;;;5071508;28;20024;-60
2023/08/29 00:58:32;;;;;;;13.05;4.75;;;19.00;99.90;;;;;;5072093;28;20035;-61
2023/08/29 01:00:58;;;;;;;13.43;4.35;;;19.00;99.90;;;;;;5071721;28;20039;-60
2023/08/29 01:03:24;;;;;;;12.23;4.90;;;19.00;99.90;;;;;;5071161;28;20393;-60
2023/08/29 01:05:50;;;;;;;12.25;5.10;;;19.10;99.90;;;;;;5072106;28;20079;-60
2023/08/29 01:08:16;;;;;;;15.98;5.78;;;19.00;99.90;;;;;;5071450;28;20032;-61
2023/08/29 01:10:51;;;;;;;11.45;4.93;;;19.10;99.90;;;;;;5071604;28;20489;-61
2023/08/29 01:13:19;;;;;;;15.48;5.72;;;19.00;99.90;;;;;;5071502;28;20390;-60
2023/08/29 01:15:49;;;;;;;14.48;5.60;;;19.10;99.90;;;;;;5071519;28;20021;-61
2023/08/29 01:18:17;;;;;;;15.10;5.32;;;19.20;99.90;;;;;;5071057;28;20109;-60
2023/08/29 01:20:44;;;;;;;14.35;5.30;;;19.10;99.90;;;;;;5071270;28;20107;-61
2023/08/29 01:23:36;;;;;;;16.75;5.88;;;19.10;99.90;;;;;;5071426;28;20485;-60
2023/08/29 01:26:08;;;;;;;18.88;5.85;;;19.10;99.90;;;;;;5071256;28;20051;-61
2023/08/29 01:28:35;;;;;;;13.32;5.30;;;19.20;99.90;;;;;;5071276;28;20457;-60
2023/08/29 01:31:03;;;;;;;13.10;5.32;;;19.50;99.90;;;;;;5071309;28;20115;-60
2023/08/29 01:33:29;;;;;;;11.95;4.90;;;19.50;99.90;;;;;;5071294;28;20085;-60
2023/08/29 01:35:55;;;;;;;13.93;5.32;;;19.70;99.90;;;;;;5071196;28;20032;-60
2023/08/29 01:38:20;;;;;;;13.20;5.43;;;19.90;99.90;;;;;;5071266;28;20100;-60
2023/08/29 01:40:46;;;;;;;12.27;5.07;;;19.80;99.90;;;;;;5071126;28;20028;-60
2023/08/29 01:43:12;;;;;;;11.80;5.05;;;19.80;99.90;;;;;;5071292;28;20028;-60
2023/08/29 01:45:38;;;;;;;13.90;5.35;;;19.90;99.90;;;;;;5071185;28;20028;-60
2023/08/29 01:48:04;;;;;;;15.20;5.45;;;19.90;99.90;;;;;;5071209;28;20497;-61
2023/08/29 01:50:32;;;;;;;11.95;4.90;;;19.90;99.90;;;;;;5071146;28;20028;-61
2023/08/29 01:53:01;;;;;;;13.15;5.20;;;19.90;99.90;;;;;;5071132;28;20024;-60
2023/08/29 01:55:28;;;;;;;11.18;5.10;;;20.00;99.90;;;;;;5070471;28;20032;-60
2023/08/29 01:57:54;;;;;;;12.07;4.97;;;20.00;99.90;;;;;;5071120;28;20024;-60
2023/08/29 02:00:22;;;;;;;11.88;4.90;;;19.90;99.90;;;;;;5070742;28;20124;-60
2023/08/29 02:02:48;;;;;;;13.15;4.90;;;19.90;99.90;;;;;;5070658;28;20013;-60
2023/08/29 02:05:14;;;;;;;13.00;5.10;;;19.70;99.90;;;;;;5071399;28;20034;-60
2023/08/29 02:07:39;;;;;;;11.05;4.88;;;19.60;99.90;;;;;;5070793;28;20029;-60
2023/08/29 02:10:06;;;;;;;13.63;5.60;;;19.50;99.90;;;;;;5070492;28;20048;-61
2023/08/29 02:12:31;;;;;;;10.48;4.90;;;19.50;99.90;;;;;;5071062;28;20071;-60
2023/08/29 02:14:57;;;;;;;11.18;5.10;;;19.40;99.90;;;;;;5070618;28;20103;-60
2023/08/29 02:17:23;;;;;;;11.15;5.03;;;19.30;99.90;;;;;;5070387;28;20543;-60
2023/08/29 02:19:49;;;;;;;13.50;4.78;;;19.20;99.90;;;;;;5070635;28;20052;-61
2023/08/29 02:22:14;;;;;;;13.98;5.03;;;19.20;99.90;;;;;;5071109;28;20028;-60
2023/08/29 02:24:40;;;;;;;11.50;4.88;;;19.20;99.90;;;;;;5070840;28;20043;-61
2023/08/29 02:27:06;;;;;;;11.98;5.30;;;19.20;99.90;;;;;;5070493;28;20052;-60
2023/08/29 02:29:32;;;;;;;12.48;4.97;;;19.30;99.90;;;;;;5071266;28;20505;-60
2023/08/29 02:31:57;;;;;;;12.93;4.80;;;19.20;99.90;;;;;;5070304;28;20029;-61
2023/08/29 02:34:24;;;;;;;11.57;5.13;;;19.20;99.90;;;;;;5070663;28;20032;-61
2023/08/29 02:36:51;;;;;;;12.15;4.78;;;19.10;99.90;;;;;;5070939;28;20401;-61
2023/08/29 02:39:16;;;;;;;13.65;5.13;;;19.20;99.90;;;;;;5070684;28;20037;-61
2023/08/29 02:41:42;;;;;;;10.02;4.95;;;19.10;99.90;;;;;;5070815;28;20259;-60
2023/08/29 02:44:08;;;;;;;12.65;5.07;;;19.10;99.90;;;;;;5070805;28;20032;-60
2023/08/29 02:46:33;;;;;;;12.52;4.85;;;19.40;99.90;;;;;;5070496;28;20119;-60
2023/08/29 02:48:59;;;;;;;12.57;4.95;;;19.50;99.90;;;;;;5052489;28;20064;-60
2023/08/29 02:51:25;;;;;;;13.57;4.93;;;19.70;99.90;;;;;;5070171;28;20028;-61
2023/08/29 02:53:51;;;;;;;13.32;5.07;;;19.70;99.90;;;;;;5070679;28;20051;-61
2023/08/29 02:56:16;;;;;;;13.82;5.07;;;19.80;99.90;;;;;;5070336;28;20505;-60
2023/08/29 02:58:42;;;;;;;14.70;5.10;;;19.80;99.90;;;;;;5070505;28;20572;-61
2023/08/29 03:01:11;;;;;;;11.35;4.85;;;19.80;99.90;;;;;;5070513;28;20032;-60
2023/08/29 03:03:37;;;;;;;12.02;5.28;;;19.90;99.90;;;;;;5070238;28;20052;-61
2023/08/29 03:06:03;;;;;;;13.15;4.65;;;19.70;99.90;;;;;;5070201;28;20035;-60
2023/08/29 03:08:29;;;;;;;12.85;5.20;;;19.90;99.90;;;;;;5073842;28;20032;-61
2023/08/29 03:10:54;;;;;;;14.07;5.43;;;19.90;99.90;;;;;;5074273;28;20037;-61
2023/08/29 03:13:21;;;;;;;14.15;4.95;;;20.00;99.90;;;;;;5073573;28;20028;-60
2023/08/29 03:15:47;;;;;;;14.63;5.30;;;19.90;99.90;;;;;;5073545;28;20107;-60
2023/08/29 03:18:13;;;;;;;12.68;5.25;;;19.90;99.90;;;;;;5073658;28;20029;-61
2023/08/29 03:20:43;;;;;;;11.27;4.93;;;19.70;99.90;;;;;;5073841;28;20386;-61
2023/08/29 03:23:09;;;;;;;14.23;5.80;;;19.50;99.90;;;;;;5073982;28;20111;-60
2023/08/29 03:25:34;;;;;;;16.42;5.30;;;19.30;99.90;;;;;;5073523;28;20099;-60
2023/08/29 03:28:00;;;;;;;13.20;4.72;;;19.20;99.90;;;;;;5073029;28;20045;-60
2023/08/29 03:30:27;;;;;;;12.30;4.75;;;19.20;99.90;;;;;;5073512;28;20477;-60
2023/08/29 03:32:53;;;;;;;12.23;4.97;;;19.20;99.90;;;;;;5073285;28;20492;-60
2023/08/29 03:35:20;;;;;;;11.45;4.68;;;19.10;99.90;;;;;;5073505;28;20027;-60
2023/08/29 03:37:46;;;;;;;13.48;5.22;;;19.10;99.90;;;;;;5073269;28;20036;-61
2023/08/29 03:40:12;;;;;;;14.25;5.53;;;19.10;99.90;;;;;;5073489;28;20090;-60
2023/08/29 03:42:39;;;;;;;16.00;5.72;;;19.00;99.90;;;;;;5072840;28;20397;-60
2023/08/29 03:45:05;;;;;;;14.23;4.65;;;19.30;99.90;;;;;;5073378;28;20039;-61
2023/08/29 03:47:33;;;;;;;12.75;4.90;;;19.30;99.90;;;;;;5072910;28;20028;-61
2023/08/29 03:49:59;;;;;;;11.75;4.55;;;19.30;99.90;;;;;;5073181;28;20108;-61
2023/08/29 03:52:26;;;;;;;11.57;4.40;;;19.20;99.90;;;;;;5073111;28;20024;-61
2023/08/29 03:54:55;;;;;;;11.98;4.22;;;19.30;99.90;;;;;;5072842;28;20028;-60
2023/08/29 03:57:26;;;;;;;10.85;5.05;;;19.20;99.90;;;;;;5072816;28;20485;-60
2023/08/29 03:59:52;;;;;;;13.63;4.68;;;19.20;99.90;;;;;;5073319;28;20063;-60
2023/08/29 04:02:18;;;;;;;10.73;4.25;;;19.40;99.90;;;;;;5072680;28;20029;-60
2023/08/29 04:04:44;;;;;;;11.75;4.85;;;19.60;99.90;;;;;;5072837;28;20075;-60
2023/08/29 04:07:10;;;;;;;13.00;4.45;;;19.70;99.90;;;;;;5073141;28;20477;-60
2023/08/29 04:09:37;;;;;;;13.75;5.05;;;19.80;99.90;;;;;;5072674;28;20028;-60
2023/08/29 04:12:03;;;;;;;11.68;4.32;;;19.80;99.90;;;;;;5072310;28;20546;-60
2023/08/29 04:14:28;;;;;;;12.85;5.10;;;19.90;99.90;;;;;;5072310;28;20024;-60
2023/08/29 04:16:55;;;;;;;13.85;4.55;;;20.00;99.90;;;;;;5072557;28;20051;-60
2023/08/29 04:19:21;;;;;;;11.13;4.50;;;20.00;99.90;;;;;;5072096;28;20068;-61
2023/08/29 04:21:47;;;;;;;13.73;4.70;;;20.00;99.90;;;;;;5072544;28;20024;-60
2023/08/29 04:24:12;;;;;;;13.35;4.20;;;19.90;99.90;;;;;;5072280;28;20024;-60
2023/08/29 04:26:38;;;;;;;13.93;4.90;;;20.00;99.90;;;;;;5071740;28;20457;-60
2023/08/29 04:29:03;;;;;;;15.10;4.90;;;19.90;99.90;;;;;;5072734;28;20470;-60
2023/08/29 04:31:29;;;;;;;12.70;4.28;;;19.90;99.90;;;;;;5072084;28;20036;-61
2023/08/29 04:33:55;;;;;;;14.95;4.60;;;19.90;99.90;;;;;;5072301;28;20477;-60
2023/08/29 04:36:20;;;;;;;14.27;4.68;;;19.70;99.90;;;;;;5072198;28;20644;-60
2023/08/29 04:38:47;;;;;;;16.35;4.95;;;19.40;99.90;;;;;;5054115;28;20397;-60
2023/08/29 04:41:13;;;;;;;11.40;4.30;;;19.20;99.90;;;;;;5071796;28;20044;-60
2023/08/29 04:43:39;;;;;;;13.05;4.57;;;19.10;99.90;;;;;;5072369;28;20025;-60
2023/08/29 04:46:07;;;;;;;13.60;4.97;;;19.00;99.90;;;;;;5071822;28;20043;-60
2023/08/29 04:48:33;;;;;;;10.65;3.75;;;19.00;99.90;;;;;;5071906;28;20047;-60
2023/08/29 04:50:59;;;;;;;14.02;4.72;;;19.00;99.90;;;;;;5071778;28;20500;-60
2023/08/29 04:53:25;;;;;;;15.38;4.50;;;19.00;99.90;;;;;;5071915;28;20025;-60
2023/08/29 04:56:02;;;;;;;14.50;4.47;;;19.00;99.90;;;;;;5071936;28;20480;-60
2023/08/29 04:58:28;;;;;;;13.32;4.75;;;18.90;99.90;;;;;;5071790;28;20029;-61
2023/08/29 05:00:54;;;;;;;15.13;4.78;;;18.80;99.90;;;;;;5071631;28;20037;-60
2023/08/29 05:03:21;;;;;;;14.68;4.35;;;18.70;99.90;;;;;;5071696;28;20031;-61
2023/08/29 05:05:47;;;;;;;15.45;4.63;;;18.70;99.90;;;;;;5071537;28;20397;-60
2023/08/29 05:08:12;;;;;;;16.17;4.68;;;18.80;99.90;;;;;;5071573;28;20024;-61
2023/08/29 05:10:38;;;;;;;15.02;4.50;;;18.70;99.90;;;;;;5071260;28;20493;-60
2023/08/29 05:13:04;;;;;;;16.20;4.63;;;18.70;99.90;;;;;;5071772;28;20067;-60
2023/08/29 05:15:32;;;;;;;14.43;4.78;;;18.70;99.90;;;;;;5071065;28;20024;-60
2023/08/29 05:17:58;;;;;;;12.55;4.38;;;18.90;99.90;;;;;;5071593;28;20027;-60
2023/08/29 05:20:23;;;;;;;10.30;4.13;;;19.20;99.90;;;;;;5071148;28;20041;-60
2023/08/29 05:22:49;;;;;;;10.52;3.75;;;19.40;99.90;;;;;;5071741;28;20028;-60
2023/08/29 05:25:15;;;;;;;11.55;4.25;;;19.60;99.90;;;;;;5070737;28;20025;-60
2023/08/29 05:27:40;;;;;;;12.07;4.05;;;19.60;99.90;;;;;;5071357;28;20055;-60
2023/08/29 05:30:07;;;;;;;8.77;3.70;;;19.70;99.90;;;;;;5070416;28;20032;-60
2023/08/29 05:32:33;;;;;;;12.75;3.58;;;19.80;99.90;;;;;;5071591;28;20051;-60
2023/08/29 05:34:59;;;;;;;13.40;4.00;;;19.90;99.90;;;;;;5071010;28;20400;-60
2023/08/29 05:37:25;;;;;;;12.02;3.85;;;19.80;99.90;;;;;;5071163;28;20021;-60
2023/08/29 05:39:51;;;;;;;12.15;3.80;;;19.70;99.90;;;;;;5070700;28;20074;-60
2023/08/29 05:42:17;;;;;;;13.05;3.60;;;19.80;99.90;;;;;;5071058;28;20029;-60
2023/08/29 05:44:43;;;;;;;6.80;3.30;;;19.70;99.90;;;;;;5071214;28;20039;-60
2023/08/29 05:47:09;;;;;;;9.25;3.30;;;19.80;99.90;;;;;;5071184;28;20020;-61
2023/08/29 05:49:35;;;;;;;10.02;3.38;;;19.70;99.90;;;;;;5071398;28;20025;-60
2023/08/29 05:52:01;;;;;;;11.98;4.20;;;19.50;99.90;;;;;;5070967;28;20029;-60
2023/08/29 05:54:27;;;;;;;15.13;4.80;;;19.40;99.90;;;;;;5070714;28;20548;-60
2023/08/29 05:56:52;;;;;;;14.38;4.55;;;19.20;99.90;;;;;;5071292;28;20025;-60
2023/08/29 05:59:18;;;;;;;13.18;4.28;;;19.20;99.90;;;;;;5070781;28;20040;-61
2023/08/29 06:01:44;;;;;;;12.45;4.30;;;19.00;99.90;;;;;;5070933;28;20052;-60
2023/08/29 06:04:09;;;;;;;13.18;4.47;;;18.90;99.90;;;;;;5071104;28;20078;-60
2023/08/29 06:06:38;;;;;;;14.45;4.30;;;18.90;99.90;;;;;;5052779;28;20027;-60
2023/08/29 06:09:04;;;;;;;14.77;4.43;;;18.80;99.90;;;;;;5070996;28;20021;-60
2023/08/29 06:11:30;;;;;;;14.05;4.40;;;18.80;99.90;;;;;;5070784;28;20405;-60
2023/08/29 06:13:55;;;;;;;13.43;4.50;;;18.50;99.90;;;;;;5070847;28;20089;-60
2023/08/29 06:16:21;;;;;;;14.45;5.15;;;18.40;99.90;;;;;;5070636;28;20044;-61
2023/08/29 06:18:47;;;;;;;15.30;4.68;;;18.40;99.90;;;;;;5070754;28;20071;-60
2023/08/29 06:21:13;;;;;;;11.88;4.10;;;18.40;99.90;;;;;;5070699;28;20033;-61
2023/08/29 06:23:38;;;;;;;10.23;3.95;;;18.40;99.90;;;;;;5070424;28;20024;-61
2023/08/29 06:26:04;;;;;;;10.73;4.03;;;18.50;99.90;;;;;;5071114;28;20378;-61
2023/08/29 06:28:31;;;;;;;12.75;3.80;;;18.60;99.90;;;;;;5070569;28;20382;-61
2023/08/29 06:31:02;;;;;;;10.95;4.55;;;18.50;99.90;;;;;;5070992;28;20409;-62
2023/08/29 06:33:28;;;;;;;14.45;4.70;;;18.50;99.90;;;;;;5071011;28;20017;-61
2023/08/29 06:35:54;;;;;;;12.15;4.68;;;18.40;99.90;;;;;;5070544;28;20038;-61
2023/08/29 06:38:19;;;;;;;12.15;4.05;;;18.60;99.90;;;;;;5070340;28;20082;-61
2023/08/29 06:40:52;;;;;;;13.40;4.35;;;18.70;99.90;;;;;;5071859;28;20044;-61
2023/08/29 06:43:18;;;;;;;13.65;4.45;;;18.90;99.90;;;;;;5074357;28;20474;-61
2023/08/29 06:45:43;;;;;;;16.05;4.93;;;19.00;99.90;;;;;;5074289;28;20051;-61
2023/08/29 06:48:10;;;;;;;12.70;4.22;;;19.00;99.90;;;;;;5074424;28;20024;-61
2023/08/29 06:50:36;;;;;;;10.35;4.03;;;19.20;99.90;;;;;;5074324;28;20034;-61
2023/08/29 06:53:03;;;;;;;13.25;4.70;;;19.20;99.90;;;;;;5074225;28;20029;-61
2023/08/29 06:55:31;;;;;;;14.25;4.00;;;19.30;99.90;;;;;;5074038;28;20032;-61
2023/08/29 06:57:57;;;;;;;13.20;4.30;;;19.30;99.90;;;;;;5073623;28;20025;-60
2023/08/29 07:00:23;;;;;;;12.85;4.30;;;19.50;99.90;;;;;;5073983;28;20390;-61
2023/08/29 07:02:50;;;;;;;12.52;4.63;;;19.30;99.90;;;;;;5056392;28;20033;-61
2023/08/29 07:05:16;;;;;;;11.65;3.95;;;19.20;99.90;;;;;;5055740;28;20028;-60
2023/08/29 07:07:42;;;;;;;11.60;4.22;;;19.30;99.90;;;;;;5073920;28;20033;-61
2023/08/29 07:10:08;;;;;;;12.02;4.25;;;19.20;99.90;;;;;;5073863;28;20024;-61
2023/08/29 07:12:35;;;;;;;10.32;3.95;;;19.10;99.90;;;;;;5073833;28;20020;-61
2023/08/29 07:15:01;;;;;;;11.93;4.20;;;19.00;99.90;;;;;;5073661;28;20036;-61
2023/08/29 07:17:27;;;;;;;13.18;4.78;;;18.80;99.90;;;;;;5074117;28;20500;-61
2023/08/29 07:19:53;;;;;;;12.27;4.60;;;18.70;99.90;;;;;;5073211;28;20485;-60
2023/08/29 07:22:19;;;;;;;11.82;3.97;;;18.60;99.90;;;;;;5073731;28;20078;-60
2023/08/29 07:24:44;;;;;;;13.52;4.88;;;18.50;99.90;;;;;;5073548;28;20028;-60
2023/08/29 07:27:11;;;;;;;10.52;3.75;;;18.50;99.90;;;;;;5073444;28;20545;-60
2023/08/29 07:29:36;;;;;;;12.23;3.80;;;18.50;99.90;;;;;;5073469;28;20037;-60
2023/08/29 07:32:02;;;;;;;9.60;4.10;;;18.50;99.90;;;;;;5073926;28;20032;-60
2023/08/29 07:34:28;;;;;;;10.38;4.00;;;18.40;99.90;;;;;;5072797;28;20166;-59
2023/08/29 07:36:53;;;;;;;10.35;4.20;;;18.40;99.90;;;;;;5073333;28;20025;-59
2023/08/29 07:39:20;;;;;;;12.73;3.75;;;18.30;99.90;;;;;;5066517;28;20028;-60
2023/08/29 07:41:46;;;;;;;12.45;4.03;;;18.30;99.90;;;;;;5060670;28;20028;-59
2023/08/29 07:44:12;;;;;;;10.93;3.63;;;18.30;99.90;;;;;;5073223;28;20032;-60
2023/08/29 07:46:38;;;;;;;8.35;3.50;;;18.30;99.90;;;;;;5062414;28;20104;-60
2023/08/29 07:49:10;;;;;;;9.23;3.55;;;18.30;99.90;;;;;;5053035;28;20029;-61
2023/08/29 07:51:36;;;;;;;8.30;3.72;;;18.30;99.90;;;;;;5058089;28;20055;-60
2023/08/29 07:54:02;;;;;;;11.32;3.53;;;18.30;99.90;;;;;;5056385;28;20035;-60
2023/08/29 07:56:28;;;;;;;9.68;3.60;;;18.30;99.90;;;;;;5069258;28;20017;-60
2023/08/29 07:58:53;;;;;;;8.23;3.63;;;18.40;99.90;;;;;;5072694;28;20448;-59
2023/08/29 08:01:19;;;;;;;9.52;3.83;;;18.50;99.90;;;;;;5072982;28;20409;-60
2023/08/29 08:03:44;;;;;;;8.00;3.58;;;18.60;99.90;;;;;;5072741;28;20473;-60
2023/08/29 08:06:10;;;;;;;8.75;3.70;;;18.80;99.90;;;;;;5072858;28;20104;-60
2023/08/29 08:08:36;;;;;;;10.30;3.65;;;18.80;99.90;;;;;;5072933;28;20107;-60
2023/08/29 08:11:01;;;;;;;10.18;4.13;;;19.00;99.90;;;;;;5072925;28;20116;-60
2023/08/29 08:13:28;;;;;;;8.40;3.72;;;19.10;99.90;;;;;;5072544;28;20107;-60
2023/08/29 08:15:53;;;;;;;7.35;3.60;;;19.20;99.90;;;;;;5072640;28;20116;-59
2023/08/29 08:18:19;;;;;;;9.77;3.55;;;19.20;99.90;;;;;;5072326;28;20545;-60
2023/08/29 08:20:45;;;;;;;9.70;3.72;;;19.10;99.90;;;;;;5072696;28;20409;-60
2023/08/29 08:23:10;;;;;;;8.30;3.58;;;19.10;99.90;;;;;;5072352;28;20473;-60
2023/08/29 08:25:36;;;;;;;8.13;3.72;;;19.10;99.90;;;;;;5072551;28;20024;-60
2023/08/29 08:28:02;;;;;;;8.80;3.55;;;19.10;99.90;;;;;;5072210;28;20072;-58
2023/08/29 08:30:28;;;;;;;13.32;4.30;;;19.00;99.90;;;;;;5072457;28;20078;-59
2023/08/29 08:32:54;;;;;;;12.02;3.90;;;18.90;99.90;;;;;;5072187;28;20048;-60
2023/08/29 08:35:20;;;;;;;12.38;4.43;;;18.90;99.90;;;;;;5072372;28;20486;-60
2023/08/29 08:37:46;;;;;;;10.43;4.00;;;18.90;99.90;;;;;;5072459;28;20040;-60
2023/08/29 08:40:14;;;;;;;14.55;4.50;;;19.00;99.90;;;;;;5071527;28;20063;-60
2023/08/29 08:42:40;;;;;;;16.33;4.25;;;19.00;99.90;;;;;;5071476;28;20024;-61
2023/08/29 08:45:07;;;;;;;12.00;4.00;;;19.00;99.90;;;;;;5072095;28;20035;-60
2023/08/29 08:47:37;;;;;;;12.07;4.60;;;19.00;99.90;;;;;;5071605;28;20477;-59
2023/08/29 08:50:10;;;;;;;14.23;3.95;;;19.00;99.90;;;;;;5072289;28;20028;-60
2023/08/29 08:52:38;;;;;;;11.93;3.80;;;19.00;99.90;;;;;;5072022;28;20103;-61
2023/08/29 08:55:05;;;;;;;8.85;3.90;;;18.90;99.90;;;;;;5072092;28;20072;-60
2023/08/29 08:57:31;;;;;;;11.57;3.92;;;19.00;99.90;;;;;;5071412;28;20108;-59
2023/08/29 08:59:57;;;;;;;11.60;3.97;;;19.00;99.90;;;;;;5071080;28;20249;-59
2023/08/29 09:02:24;;;;;;;13.50;4.30;;;19.00;99.90;;;;;;5070358;28;20155;-61
2023/08/29 09:04:50;;;;;;;11.30;3.83;;;19.00;99.90;;;;;;5062044;28;20032;-61
2023/08/29 09:07:16;;;;;;;11.07;3.83;;;19.10;99.90;;;;;;5052514;28;20021;-61
2023/08/29 09:09:42;;;;;;;12.40;4.32;;;19.00;99.90;;;;;;5051383;28;20139;-61
2023/08/29 09:12:07;;;;;;;9.95;3.67;;;19.00;99.90;;;;;;5051565;28;20021;-61
2023/08/29 09:14:33;;;;;;;10.52;3.88;;;19.10;99.90;;;;;;5054668;28;20025;-61
2023/08/29 09:17:00;;;;;;;8.35;3.50;;;19.30;99.90;;;;;;5070342;28;20473;-61
2023/08/29 09:19:29;;;;;;;7.75;3.20;;;19.60;99.90;;;;;;5070862;28;20048;-61
2023/08/29 09:21:55;;;;;;;7.80;3.10;;;19.70;99.90;;;;;;5071199;28;20051;-61
2023/08/29 09:24:33;;;;;;;10.38;3.70;;;19.80;99.90;;;;;;5071261;28;20032;-61
2023/08/29 09:27:06;;;;;;;7.35;3.30;;;19.90;99.90;;;;;;5071263;28;20044;-61
2023/08/29 09:29:33;;;;;;;10.07;3.47;;;19.90;99.90;;;;;;5071430;28;20017;-61
2023/08/29 09:31:59;;;;;;;8.90;3.50;;;19.70;99.90;;;;;;5071167;28;20817;-61
2023/08/29 09:34:31;;;;;;;9.55;3.28;;;19.60;99.90;;;;;;5066286;28;20040;-61
2023/08/29 09:36:58;;;;;;;9.27;3.65;;;19.50;99.90;;;;;;5055774;28;20382;-61
2023/08/29 09:39:24;;;;;;;11.48;3.50;;;19.50;99.90;;;;;;5063990;28;20021;-61
2023/08/29 09:42:06;;;;;;;7.35;3.72;;;19.40;99.90;;;;;;5070608;28;20021;-61
2023/08/29 09:44:37;;;;;;;11.05;3.65;;;19.40;99.90;;;;;;5071156;28;20055;-60
2023/08/29 09:47:04;;;;;;;12.13;3.95;;;19.40;99.90;;;;;;5070368;28;20033;-61
2023/08/29 09:49:43;;;;;;;10.98;4.05;;;19.30;99.90;;;;;;5071050;28;20032;-60
2023/08/29 09:52:10;;;;;;;11.85;3.67;;;19.20;99.90;;;;;;5070932;28;20040;-61
2023/08/29 09:54:43;;;;;;;9.45;3.80;;;19.10;99.90;;;;;;5070932;28;20135;-60
2023/08/29 09:57:10;;;;;;;11.05;3.72;;;19.00;99.90;;;;;;5071369;28;20393;-61
2023/08/29 09:59:39;;;;;;;10.55;3.60;;;18.90;99.90;;;;;;5070473;28;20044;-61
2023/08/29 10:02:06;;;;;;;10.23;3.70;;;18.80;99.90;;;;;;5070704;28;20055;-61
2023/08/29 10:04:36;;;;;;;8.93;3.63;;;18.80;99.90;;;;;;5070048;28;20063;-61
2023/08/29 10:07:05;;;;;;;11.77;4.05;;;18.70;99.90;;;;;;5069540;28;20025;-61
2023/08/29 10:09:32;;;;;;;11.50;3.83;;;18.70;99.90;;;;;;5070660;28;20067;-61
2023/08/29 10:11:58;;;;;;;12.50;3.50;;;18.80;99.90;;;;;;5069755;28;20111;-61
2023/08/29 10:14:25;;;;;;;9.15;3.50;;;18.80;99.90;;;;;;5073160;28;20029;-61
2023/08/29 10:16:51;;;;;;;9.93;3.60;;;18.80;99.90;;;;;;5093633;28;20024;-61
2023/08/29 10:19:19;;;;;;;8.30;3.15;;;18.90;99.90;;;;;;5093201;28;20024;-61
2023/08/29 10:21:46;;;;;;;8.50;3.50;;;19.00;99.90;;;;;;5074719;28;20028;-62
2023/08/29 10:24:12;;;;;;;11.57;3.80;;;19.10;99.90;;;;;;5074596;28;20020;-61
2023/08/29 10:26:38;;;;;;;10.75;3.97;;;19.20;99.90;;;;;;5074798;28;20044;-61
2023/08/29 10:29:05;;;;;;;12.10;3.55;;;19.30;99.90;;;;;;5074066;28;20016;-61
2023/08/29 10:31:34;;;;;;;10.85;3.83;;;19.40;99.90;;;;;;5074535;28;20119;-61
2023/08/29 10:34:03;;;;;;;13.25;4.22;;;19.50;99.90;;;;;;5074391;28;20052;-61
2023/08/29 10:36:30;;;;;;;10.82;3.85;;;19.70;99.90;;;;;;5074754;28;20082;-61
2023/08/29 10:38:59;;;;;;;12.23;3.70;;;19.80;99.90;;;;;;5094392;28;20032;-61
2023/08/29 10:41:25;;;;;;;14.50;3.65;;;19.90;99.90;;;;;;5085052;28;20031;-61
2023/08/29 10:44:24;;;;;;;8.93;3.22;;;20.00;99.90;;;;;;5071411;28;20035;-60
2023/08/29 10:46:53;;;;;;;9.45;3.50;;;20.20;99.90;;;;;;5086685;28;20130;-61
2023/08/29 10:49:21;;;;;;;8.48;3.17;;;20.10;99.90;;;;;;5063792;28;20115;-60
2023/08/29 10:52:08;;;;;;;9.00;3.50;;;20.30;99.90;;;;;;5074203;28;20029;-60
2023/08/29 10:54:33;;;;;;;10.18;3.35;;;20.30;99.90;;;;;;5074117;28;20025;-61
2023/08/29 10:57:00;;;;;;;7.13;3.30;;;20.40;99.90;;;;;;5073850;28;20032;-61
2023/08/29 10:59:32;;;;;;;11.75;3.38;;;20.40;99.90;;;;;;5073824;28;20619;-61
2023/08/29 11:02:27;;;;;;;11.80;3.25;;;20.40;99.90;;;;;;5074009;28;20477;-61
2023/08/29 11:05:14;;;;;;;10.35;3.72;;;20.30;99.90;;;;;;5073836;28;20016;-61
2023/08/29 11:07:40;;;;;;;6.45;3.17;;;20.20;99.90;;;;;;5073933;28;20016;-61
2023/08/29 11:10:15;;;;;;;9.57;3.42;;;20.00;99.90;;;;;;5074043;28;20028;-61
2023/08/29 11:13:07;;;;;;;8.75;3.33;;;19.90;99.90;;;;;;5073504;28;20447;-61
2023/08/29 11:15:51;;;;;;;9.38;3.58;;;20.00;99.90;;;;;;5073278;28;20043;-61
2023/08/29 11:18:21;;;;;;;9.27;4.13;;;19.90;99.90;;;;;;5072712;28;20037;-61
2023/08/29 11:20:47;;;;;;;8.40;4.38;;;19.80;99.90;;;;;;5073521;28;20028;-61
2023/08/29 11:23:13;;;;;;;11.23;4.40;;;19.90;99.90;;;;;;5073750;28;20025;-61
2023/08/29 11:25:39;;;;;;;8.40;3.72;;;19.90;99.90;;;;;;5073322;28;20098;-61
2023/08/29 11:28:05;;;;;;;10.15;3.60;;;20.00;99.90;;;;;;5072109;28;20505;-60
2023/08/29 11:30:32;;;;;;;7.43;3.47;;;20.20;99.90;;;;;;5073543;28;20155;-61
2023/08/29 11:32:58;;;;;;;9.20;3.45;;;20.40;99.90;;;;;;5072944;28;20036;-60
2023/08/29 11:35:24;;;;;;;6.10;3.40;;;20.40;99.90;;;;;;5073225;28;20036;-60
2023/08/29 11:37:49;;;;;;;9.27;3.58;;;20.50;99.90;;;;;;5072605;28;20039;-60
2023/08/29 11:40:22;;;;;;;8.27;3.20;;;20.40;99.90;;;;;;5072870;28;20047;-61
2023/08/29 11:42:48;;;;;;;7.47;3.28;;;20.40;99.90;;;;;;5073037;28;20029;-61
2023/08/29 11:45:16;;;;;;;10.43;3.50;;;20.40;99.90;;;;;;5073306;28;20021;-61
2023/08/29 11:47:42;;;;;;;7.88;3.50;;;20.40;99.90;;;;;;5073144;28;20556;-60
2023/08/29 11:50:08;;;;;;;7.43;3.33;;;20.50;99.90;;;;;;5073559;28;20025;-60
2023/08/29 11:52:34;;;;;;;6.47;3.38;;;20.70;99.90;;;;;;5073276;28;20033;-60
2023/08/29 11:55:04;;;;;;;6.90;3.35;;;21.00;99.90;;;;;;5073141;28;20078;-60
2023/08/29 11:57:30;;;;;;;7.75;3.42;;;21.20;99.90;;;;;;5072675;28;20477;-60
2023/08/29 11:59:59;;;;;;;6.55;3.20;;;21.40;99.90;;;;;;5073471;28;20040;-60
2023/08/29 12:02:26;;;;;;;6.45;3.22;;;21.60;99.90;;;;;;5072791;28;20451;-60
2023/08/29 12:04:56;;;;;;;7.32;3.53;;;21.70;99.90;;;;;;5072870;28;20043;-60
2023/08/29 12:07:23;;;;;;;7.45;3.50;;;21.70;99.90;;;;;;5073163;28;20036;-61
2023/08/29 12:09:52;;;;;;;7.32;3.30;;;21.80;99.90;;;;;;5072459;28;20028;-60
2023/08/29 12:12:33;;;;;;;5.60;3.33;;;21.90;99.90;;;;;;5073079;28;20107;-60
2023/08/29 12:14:59;;;;;;;6.35;3.70;;;21.90;99.90;;;;;;5072208;28;20500;-60
2023/08/29 12:17:52;;;;;;;6.15;3.40;;;21.70;99.90;;;;;;5072964;28;20036;-61
2023/08/29 12:20:17;;;;;;;5.45;3.63;;;21.80;99.90;;;;;;5068845;28;20362;-60
2023/08/29 12:22:52;;;;;;;7.13;3.65;;;22.00;99.90;;;;;;5072543;28;20481;-61
2023/08/29 12:25:20;;;;;;;5.72;3.67;;;22.10;99.90;;;;;;5072347;28;20477;-60
2023/08/29 12:27:47;;;;;;;5.13;3.35;;;22.00;99.90;;;;;;5072892;28;20132;-60
2023/08/29 12:30:14;;;;;;;4.60;3.13;;;21.80;99.90;;;;;;5072429;28;20036;-60
2023/08/29 12:32:44;;;;;;;4.47;3.00;;;21.70;99.90;;;;;;5072283;28;20025;-60
2023/08/29 12:35:11;;;;;;;5.18;3.40;;;21.70;99.90;;;;;;5072252;28;20043;-60
2023/08/29 12:37:37;;;;;;;4.65;3.38;;;21.60;99.90;;;;;;5054451;28;20063;-60